sensor_id;sensor_type;location;lat;lon;timestamp;pressure;altitude;pressure_sealevel;temperature;humidity
66486;BME280;53303;47.476;8.084;2023-02-16T00:01:53;96329.31;;;19.52;32.67
66486;BME280;53303;47.476;8.084;2023-02-16T00:06:44;96324.53;;;19.53;32.84
66486;BME280;53303;47.476;8.084;2023-02-16T00:09:09;96309.94;;;19.52;32.52
66486;BME280;53303;47.476;8.084;2023-02-16T00:11:35;96326.75;;;19.49;32.52
66486;BME280;53303;47.476;8.084;2023-02-16T00:14:22;96331.31;;;19.52;32.54
66486;BME280;53303;47.476;8.084;2023-02-16T00:17:03;96327.03;;;19.51;32.60
66486;BME280;53303;47.476;8.084;2023-02-16T00:19:41;96318.16;;;19.47;32.53
66486;BME280;53303;47.476;8.084;2023-02-16T00:22:07;96293.22;;;19.26;32.52
66486;BME280;53303;47.476;8.084;2023-02-16T00:24:33;96328.56;;;19.52;32.64
66486;BME280;53303;47.476;8.084;2023-02-16T00:26:59;96314.06;;;19.42;32.68
66486;BME280;53303;47.476;8.084;2023-02-16T00:29:31;96331.81;;;19.50;32.51
66486;BME280;53303;47.476;8.084;2023-02-16T00:32:00;96291.78;;;19.31;32.57
66486;BME280;53303;47.476;8.084;2023-02-16T00:34:47;96286.91;;;19.26;32.52
66486;BME280;53303;47.476;8.084;2023-02-16T00:37:12;96312.13;;;19.48;32.94
66486;BME280;53303;47.476;8.084;2023-02-16T00:39:41;96306.25;;;19.40;32.42
66486;BME280;53303;47.476;8.084;2023-02-16T00:42:19;96258.38;;;18.99;32.53
66486;BME280;53303;47.476;8.084;2023-02-16T00:44:48;96318.25;;;19.52;32.63
66486;BME280;53303;47.476;8.084;2023-02-16T00:47:26;96315.94;;;19.51;32.53
66486;BME280;53303;47.476;8.084;2023-02-16T00:49:56;96309.66;;;19.50;32.55
66486;BME280;53303;47.476;8.084;2023-02-16T00:52:38;96306.78;;;19.45;32.44
66486;BME280;53303;47.476;8.084;2023-02-16T00:55:14;96307.84;;;19.47;32.46
66486;BME280;53303;47.476;8.084;2023-02-16T00:57:47;96296.72;;;19.42;32.52
66486;BME280;53303;47.476;8.084;2023-02-16T01:00:46;96306.78;;;19.45;32.50
66486;BME280;53303;47.476;8.084;2023-02-16T01:03:16;96304.31;;;19.47;32.54
66486;BME280;53303;47.476;8.084;2023-02-16T01:05:42;96305.09;;;19.47;32.43
66486;BME280;53303;47.476;8.084;2023-02-16T01:08:10;96296.03;;;19.47;32.69
66486;BME280;53303;47.476;8.084;2023-02-16T01:10:55;96281.53;;;19.37;32.54
66486;BME280;53303;47.476;8.084;2023-02-16T01:13:46;96307.84;;;19.47;32.67
66486;BME280;53303;47.476;8.084;2023-02-16T01:16:18;96305.34;;;19.49;32.40
66486;BME280;53303;47.476;8.084;2023-02-16T01:18:45;96298.50;;;19.45;32.36
66486;BME280;53303;47.476;8.084;2023-02-16T01:21:10;96288.41;;;19.42;32.20
66486;BME280;53303;47.476;8.084;2023-02-16T01:23:37;96290.91;;;19.39;32.43
66486;BME280;53303;47.476;8.084;2023-02-16T01:26:03;96291.16;;;19.42;32.40
66486;BME280;53303;47.476;8.084;2023-02-16T01:28:34;96296.03;;;19.47;32.72
66486;BME280;53303;47.476;8.084;2023-02-16T01:31:03;96301.34;;;19.50;32.46
66486;BME280;53303;47.476;8.084;2023-02-16T01:33:32;96279.81;;;19.39;32.36
66486;BME280;53303;47.476;8.084;2023-02-16T01:35:57;96302.13;;;19.51;32.43
66486;BME280;53303;47.476;8.084;2023-02-16T01:38:25;96289.22;;;19.48;32.51
66486;BME280;53303;47.476;8.084;2023-02-16T01:40:58;96293.06;;;19.50;32.09
66486;BME280;53303;47.476;8.084;2023-02-16T01:43:42;96281.06;;;19.38;32.56
66486;BME280;53303;47.476;8.084;2023-02-16T01:46:16;96289.72;;;19.46;32.44
66486;BME280;53303;47.476;8.084;2023-02-16T01:48:44;96292.28;;;19.50;32.22
66486;BME280;53303;47.476;8.084;2023-02-16T01:54:36;96286.47;;;19.48;32.38
66486;BME280;53303;47.476;8.084;2023-02-16T01:57:02;96283.69;;;19.48;32.37
66486;BME280;53303;47.476;8.084;2023-02-16T01:59:59;96285.22;;;19.49;32.46
66486;BME280;53303;47.476;8.084;2023-02-16T02:02:35;96289.91;;;19.43;31.99
66486;BME280;53303;47.476;8.084;2023-02-16T02:16:32;96282.09;;;19.41;32.34
66486;BME280;53303;47.476;8.084;2023-02-16T02:18:57;96268.44;;;19.37;32.35
66486;BME280;53303;47.476;8.084;2023-02-16T02:30:52;96272.47;;;19.36;32.52
66486;BME280;53303;47.476;8.084;2023-02-16T02:33:43;96281.59;;;19.43;32.46
66486;BME280;53303;47.476;8.084;2023-02-16T02:44:25;96286.19;;;19.46;32.48
66486;BME280;53303;47.476;8.084;2023-02-16T02:46:53;96247.97;;;19.29;32.48
66486;BME280;53303;47.476;8.084;2023-02-16T02:49:18;96246.03;;;19.15;32.42
66486;BME280;53303;47.476;8.084;2023-02-16T02:51:47;96258.56;;;19.31;32.34
66486;BME280;53303;47.476;8.084;2023-02-16T02:57:32;96275.78;;;19.40;32.30
66486;BME280;53303;47.476;8.084;2023-02-16T03:00:22;96275.59;;;19.44;32.51
66486;BME280;53303;47.476;8.084;2023-02-16T03:05:59;96248.47;;;19.28;32.23
66486;BME280;53303;47.476;8.084;2023-02-16T03:08:31;96262.63;;;19.35;32.25
66486;BME280;53303;47.476;8.084;2023-02-16T03:11:14;96251.03;;;19.31;32.42
66486;BME280;53303;47.476;8.084;2023-02-16T03:14:14;96263.00;;;19.43;32.31
66486;BME280;53303;47.476;8.084;2023-02-16T03:16:51;96262.50;;;19.45;32.26
66486;BME280;53303;47.476;8.084;2023-02-16T03:19:39;96254.06;;;19.33;32.10
66486;BME280;53303;47.476;8.084;2023-02-16T03:22:30;96270.06;;;19.44;32.33
66486;BME280;53303;47.476;8.084;2023-02-16T03:25:15;96265.41;;;19.35;32.19
66486;BME280;53303;47.476;8.084;2023-02-16T03:28:02;96271.78;;;19.42;32.24
66486;BME280;53303;47.476;8.084;2023-02-16T03:30:49;96260.16;;;19.37;32.28
66486;BME280;53303;47.476;8.084;2023-02-16T03:33:16;96281.88;;;19.45;32.33
66486;BME280;53303;47.476;8.084;2023-02-16T03:35:42;96259.53;;;19.28;32.33
66486;BME280;53303;47.476;8.084;2023-02-16T03:38:11;96270.00;;;19.38;32.39
66486;BME280;53303;47.476;8.084;2023-02-16T03:40:40;96272.06;;;19.44;32.32
66486;BME280;53303;47.476;8.084;2023-02-16T03:43:07;96271.31;;;19.43;32.18
66486;BME280;53303;47.476;8.084;2023-02-16T03:45:37;96268.56;;;19.43;32.24
66486;BME280;53303;47.476;8.084;2023-02-16T03:48:06;96274.28;;;19.39;32.36
66486;BME280;53303;47.476;8.084;2023-02-16T03:50:34;96256.06;;;19.33;32.37
66486;BME280;53303;47.476;8.084;2023-02-16T03:52:59;96262.22;;;19.43;32.32
66486;BME280;53303;47.476;8.084;2023-02-16T03:55:41;96272.34;;;19.46;32.25
66486;BME280;53303;47.476;8.084;2023-02-16T03:58:09;96269.03;;;19.42;32.29
66486;BME280;53303;47.476;8.084;2023-02-16T04:00:36;96273.09;;;19.46;32.25
66486;BME280;53303;47.476;8.084;2023-02-16T04:03:07;96281.41;;;19.46;32.19
66486;BME280;53303;47.476;8.084;2023-02-16T04:05:33;96259.31;;;19.31;32.27
66486;BME280;53303;47.476;8.084;2023-02-16T04:08:01;96282.59;;;19.39;31.95
66486;BME280;53303;47.476;8.084;2023-02-16T04:10:29;96242.56;;;19.20;32.17
66486;BME280;53303;47.476;8.084;2023-02-16T04:12:57;96277.88;;;19.46;31.99
66486;BME280;53303;47.476;8.084;2023-02-16T04:15:27;96283.41;;;19.46;32.22
66486;BME280;53303;47.476;8.084;2023-02-16T04:17:53;96262.09;;;19.31;32.14
66486;BME280;53303;47.476;8.084;2023-02-16T04:20:21;96275.59;;;19.44;32.13
66486;BME280;53303;47.476;8.084;2023-02-16T04:22:47;96262.91;;;19.37;32.22
66486;BME280;53303;47.476;8.084;2023-02-16T04:25:16;96281.41;;;19.46;32.30
66486;BME280;53303;47.476;8.084;2023-02-16T04:27:43;96278.38;;;19.44;32.21
66486;BME280;53303;47.476;8.084;2023-02-16T04:30:15;96276.28;;;19.39;32.22
66486;BME280;53303;47.476;8.084;2023-02-16T04:32:45;96283.63;;;19.42;32.26
66486;BME280;53303;47.476;8.084;2023-02-16T04:35:13;96270.19;;;19.35;32.04
66486;BME280;53303;47.476;8.084;2023-02-16T04:37:38;96257.44;;;19.23;32.01
66486;BME280;53303;47.476;8.084;2023-02-16T04:40:08;96287.41;;;19.45;32.13
66486;BME280;53303;47.476;8.084;2023-02-16T04:42:38;96270.00;;;19.38;32.14
66486;BME280;53303;47.476;8.084;2023-02-16T04:45:06;96263.31;;;19.30;32.04
66486;BME280;53303;47.476;8.084;2023-02-16T04:47:36;96270.19;;;19.35;32.22
66486;BME280;53303;47.476;8.084;2023-02-16T04:50:02;96274.84;;;19.44;32.12
66486;BME280;53303;47.476;8.084;2023-02-16T04:52:29;96269.03;;;19.42;32.18
66486;BME280;53303;47.476;8.084;2023-02-16T04:54:55;96268.66;;;19.34;32.16
66486;BME280;53303;47.476;8.084;2023-02-16T04:57:20;96282.88;;;19.42;32.27
66486;BME280;53303;47.476;8.084;2023-02-16T04:59:50;96283.91;;;19.44;32.11
66486;BME280;53303;47.476;8.084;2023-02-16T05:02:18;96276.06;;;19.43;32.14
66486;BME280;53303;47.476;8.084;2023-02-16T05:04:46;96272.00;;;19.38;32.31
66486;BME280;53303;47.476;8.084;2023-02-16T05:07:11;96260.56;;;19.30;32.43
66486;BME280;53303;47.476;8.084;2023-02-16T05:09:39;96286.19;;;19.46;32.29
66486;BME280;53303;47.476;8.084;2023-02-16T05:12:06;96282.88;;;19.42;32.07
66486;BME280;53303;47.476;8.084;2023-02-16T05:14:53;96275.03;;;19.40;31.94
66486;BME280;53303;47.476;8.084;2023-02-16T05:17:25;96297.25;;;19.46;31.83
66486;BME280;53303;47.476;8.084;2023-02-16T05:19:54;96298.00;;;19.46;32.11
66486;BME280;53303;47.476;8.084;2023-02-16T05:22:20;96292.47;;;19.46;31.89
66486;BME280;53303;47.476;8.084;2023-02-16T05:24:48;96272.69;;;19.33;32.23
66486;BME280;53303;47.476;8.084;2023-02-16T05:27:18;96299.28;;;19.45;32.00
66486;BME280;53303;47.476;8.084;2023-02-16T05:29:46;96280.50;;;19.34;32.29
66486;BME280;53303;47.476;8.084;2023-02-16T05:32:12;96296.03;;;19.47;32.02
66486;BME280;53303;47.476;8.084;2023-02-16T05:34:38;96301.75;;;19.43;31.84
66486;BME280;53303;47.476;8.084;2023-02-16T05:37:04;96299.19;;;19.39;32.08
66486;BME280;53303;47.476;8.084;2023-02-16T05:39:31;96300.03;;;19.46;31.92
66486;BME280;53303;47.476;8.084;2023-02-16T05:41:59;96312.31;;;19.45;31.96
66486;BME280;53303;47.476;8.084;2023-02-16T05:44:25;96296.44;;;19.39;32.17
66486;BME280;53303;47.476;8.084;2023-02-16T05:46:50;96311.84;;;19.46;31.91
66486;BME280;53303;47.476;8.084;2023-02-16T05:49:16;96297.66;;;19.38;32.02
66486;BME280;53303;47.476;8.084;2023-02-16T05:51:42;96288.31;;;19.36;31.97
66486;BME280;53303;47.476;8.084;2023-02-16T05:54:08;96295.91;;;19.41;31.89
66486;BME280;53303;47.476;8.084;2023-02-16T05:56:38;96306.78;;;19.45;32.06
66486;BME280;53303;47.476;8.084;2023-02-16T05:59:06;96299.00;;;19.43;31.93
66486;BME280;53303;47.476;8.084;2023-02-16T06:01:32;96272.81;;;19.24;31.80
66486;BME280;53303;47.476;8.084;2023-02-16T06:03:57;96300.22;;;19.42;31.82
66486;BME280;53303;47.476;8.084;2023-02-16T06:06:22;96299.94;;;19.40;31.87
66486;BME280;53303;47.476;8.084;2023-02-16T06:08:48;96284.50;;;19.33;31.96
66486;BME280;53303;47.476;8.084;2023-02-16T06:11:22;96279.38;;;19.26;32.10
66486;BME280;53303;47.476;8.084;2023-02-16T06:14:14;96316.63;;;19.46;31.85
66486;BME280;53303;47.476;8.084;2023-02-16T06:16:44;96310.06;;;19.43;31.98
66486;BME280;53303;47.476;8.084;2023-02-16T06:19:10;96314.34;;;19.44;31.93
66486;BME280;53303;47.476;8.084;2023-02-16T06:21:36;96332.28;;;19.49;31.91
66486;BME280;53303;47.476;8.084;2023-02-16T06:24:05;96317.31;;;19.40;32.09
66486;BME280;53303;47.476;8.084;2023-02-16T06:26:34;96326.16;;;19.45;32.02
66486;BME280;53303;47.476;8.084;2023-02-16T06:28:59;96326.88;;;19.39;32.07
66486;BME280;53303;47.476;8.084;2023-02-16T06:31:25;96340.59;;;19.49;31.95
66486;BME280;53303;47.476;8.084;2023-02-16T06:33:51;96344.88;;;19.50;31.98
66486;BME280;53303;47.476;8.084;2023-02-16T06:36:17;96318.25;;;19.37;31.82
66486;BME280;53303;47.476;8.084;2023-02-16T06:38:43;96321.03;;;19.37;32.01
66486;BME280;53303;47.476;8.084;2023-02-16T06:41:10;96343.63;;;19.51;31.91
66486;BME280;53303;47.476;8.084;2023-02-16T06:43:36;96323.78;;;19.37;31.95
66486;BME280;53303;47.476;8.084;2023-02-16T06:46:04;96344.38;;;19.51;31.77
66486;BME280;53303;47.476;8.084;2023-02-16T06:48:32;96334.66;;;19.41;31.80
66486;BME280;53303;47.476;8.084;2023-02-16T06:50:57;96319.03;;;19.38;31.76
66486;BME280;53303;47.476;8.084;2023-02-16T06:53:22;96346.69;;;19.53;31.84
66486;BME280;53303;47.476;8.084;2023-02-16T06:55:50;96339.13;;;19.53;31.80
66486;BME280;53303;47.476;8.084;2023-02-16T06:58:18;96343.84;;;19.47;31.90
66486;BME280;53303;47.476;8.084;2023-02-16T07:00:43;96350.97;;;19.54;31.78
66486;BME280;53303;47.476;8.084;2023-02-16T07:03:09;96355.25;;;19.55;31.75
66486;BME280;53303;47.476;8.084;2023-02-16T07:05:34;96336.00;;;19.46;31.96
66486;BME280;53303;47.476;8.084;2023-02-16T07:08:02;96351.38;;;19.47;31.72
66486;BME280;53303;47.476;8.084;2023-02-16T07:10:32;96340.00;;;19.45;31.59
66486;BME280;53303;47.476;8.084;2023-02-16T07:12:58;96354.50;;;19.54;31.68
66486;BME280;53303;47.476;8.084;2023-02-16T07:15:25;96358.03;;;19.55;31.74
66486;BME280;53303;47.476;8.084;2023-02-16T07:17:51;96356.03;;;19.55;31.86
66486;BME280;53303;47.476;8.084;2023-02-16T07:20:19;96331.81;;;19.35;31.79
66486;BME280;53303;47.476;8.084;2023-02-16T07:22:49;96356.50;;;19.54;31.97
66486;BME280;53303;47.476;8.084;2023-02-16T07:25:20;96341.47;;;19.40;31.63
66486;BME280;53303;47.476;8.084;2023-02-16T07:27:46;96339.94;;;19.39;31.73
66486;BME280;53303;47.476;8.084;2023-02-16T07:30:12;96336.41;;;19.38;31.81
66486;BME280;53303;47.476;8.084;2023-02-16T07:32:41;96353.53;;;19.57;31.66
66486;BME280;53303;47.476;8.084;2023-02-16T07:35:06;96347.16;;;19.51;31.62
66486;BME280;53303;47.476;8.084;2023-02-16T07:37:33;96352.69;;;19.51;31.79
66486;BME280;53303;47.476;8.084;2023-02-16T07:39:58;96367.13;;;19.55;31.45
66486;BME280;53303;47.476;8.084;2023-02-16T07:42:28;96356.31;;;19.57;31.74
66486;BME280;53303;47.476;8.084;2023-02-16T07:44:56;96360.59;;;19.58;31.61
66486;BME280;53303;47.476;8.084;2023-02-16T07:47:24;96344.31;;;19.46;31.64
66486;BME280;53303;47.476;8.084;2023-02-16T07:49:55;96361.78;;;19.52;31.70
66486;BME280;53303;47.476;8.084;2023-02-16T07:52:20;96327.56;;;19.34;31.64
66486;BME280;53303;47.476;8.084;2023-02-16T07:54:48;96345.75;;;19.41;31.78
66486;BME280;53303;47.476;8.084;2023-02-16T07:57:14;96367.88;;;19.56;31.80
66486;BME280;53303;47.476;8.084;2023-02-16T07:59:42;96351.66;;;19.49;31.77
66486;BME280;53303;47.476;8.084;2023-02-16T08:02:14;96359.28;;;19.54;31.51
66486;BME280;53303;47.476;8.084;2023-02-16T08:04:42;96363.09;;;19.56;31.69
66486;BME280;53303;47.476;8.084;2023-02-16T08:07:16;96365.31;;;19.52;31.69
66486;BME280;53303;47.476;8.084;2023-02-16T08:09:44;96366.41;;;19.60;31.54
66486;BME280;53303;47.476;8.084;2023-02-16T08:12:13;96370.44;;;19.59;31.72
66486;BME280;53303;47.476;8.084;2023-02-16T08:14:39;96338.91;;;19.36;31.55
66486;BME280;53303;47.476;8.084;2023-02-16T08:17:07;96365.56;;;19.54;31.65
66486;BME280;53303;47.476;8.084;2023-02-16T08:19:33;96379.50;;;19.60;31.58
66486;BME280;53303;47.476;8.084;2023-02-16T08:22:00;96378.25;;;19.61;31.61
66486;BME280;53303;47.476;8.084;2023-02-16T08:24:31;96366.59;;;19.57;31.41
66486;BME280;53303;47.476;8.084;2023-02-16T08:27:02;96370.91;;;19.58;31.74
66486;BME280;53303;47.476;8.084;2023-02-16T08:29:33;96357.19;;;19.49;31.66
66486;BME280;53303;47.476;8.084;2023-02-16T08:32:01;96381.03;;;19.61;31.47
66486;BME280;53303;47.476;8.084;2023-02-16T08:34:32;96355.66;;;19.48;31.71
66486;BME280;53303;47.476;8.084;2023-02-16T08:37:01;96380.44;;;19.57;31.46
66486;BME280;53303;47.476;8.084;2023-02-16T08:39:30;96375.91;;;19.54;31.58
66486;BME280;53303;47.476;8.084;2023-02-16T08:41:57;96382.19;;;19.54;31.69
66486;BME280;53303;47.476;8.084;2023-02-16T08:44:24;96380.44;;;19.57;31.55
66486;BME280;53303;47.476;8.084;2023-02-16T08:46:51;96357.88;;;19.44;31.64
66486;BME280;53303;47.476;8.084;2023-02-16T08:49:22;96399.94;;;19.63;31.53
66486;BME280;53303;47.476;8.084;2023-02-16T08:51:54;96401.44;;;19.64;31.65
66486;BME280;53303;47.476;8.084;2023-02-16T08:54:30;96378.09;;;19.50;31.58
66486;BME280;53303;47.476;8.084;2023-02-16T08:56:59;96395.91;;;19.64;31.63
66486;BME280;53303;47.476;8.084;2023-02-16T08:59:29;96379.13;;;19.52;31.91
66486;BME280;53303;47.476;8.084;2023-02-16T09:01:56;96392.09;;;19.61;31.70
66486;BME280;53303;47.476;8.084;2023-02-16T09:04:27;96382.47;;;19.56;31.88
66486;BME280;53303;47.476;8.084;2023-02-16T09:06:53;96378.94;;;19.56;31.73
66486;BME280;53303;47.476;8.084;2023-02-16T09:09:20;96394.69;;;19.65;31.70
66486;BME280;53303;47.476;8.084;2023-02-16T09:11:46;96382.53;;;19.62;31.71
66486;BME280;53303;47.476;8.084;2023-02-16T09:14:13;96394.69;;;19.65;31.65
66486;BME280;53303;47.476;8.084;2023-02-16T09:16:43;96389.53;;;19.57;31.50
66486;BME280;53303;47.476;8.084;2023-02-16T09:19:14;96388.88;;;19.63;31.74
66486;BME280;53303;47.476;8.084;2023-02-16T09:21:42;96369.31;;;19.51;31.55
66486;BME280;53303;47.476;8.084;2023-02-16T09:24:09;96375.91;;;19.54;31.70
66486;BME280;53303;47.476;8.084;2023-02-16T09:26:39;96385.88;;;19.66;31.62
66486;BME280;53303;47.476;8.084;2023-02-16T09:29:07;96389.13;;;19.65;31.75
66486;BME280;53303;47.476;8.084;2023-02-16T09:31:35;96370.34;;;19.54;31.61
66486;BME280;53303;47.476;8.084;2023-02-16T09:34:08;96388.66;;;19.66;31.83
66486;BME280;53303;47.476;8.084;2023-02-16T09:36:38;96392.19;;;19.67;31.72
66486;BME280;53303;47.476;8.084;2023-02-16T09:39:04;96395.22;;;19.69;31.68
66486;BME280;53303;47.476;8.084;2023-02-16T09:46:47;96388.88;;;19.63;31.71
66486;BME280;53303;47.476;8.084;2023-02-16T09:49:37;96387.25;;;19.56;31.77
66486;BME280;53303;47.476;8.084;2023-02-16T09:57:24;96406.78;;;19.67;31.83
66486;BME280;53303;47.476;8.084;2023-02-16T10:00:11;96390.28;;;19.58;31.95
66486;BME280;53303;47.476;8.084;2023-02-16T10:08:15;96382.00;;;19.58;31.88
66486;BME280;53303;47.476;8.084;2023-02-16T10:13:22;96388.94;;;19.68;31.89
66486;BME280;53303;47.476;8.084;2023-02-16T10:15:50;96361.56;;;19.55;31.81
66486;BME280;53303;47.476;8.084;2023-02-16T10:20:49;96381.66;;;19.71;31.57
66486;BME280;53303;47.476;8.084;2023-02-16T10:26:14;96380.03;;;19.64;31.88
66486;BME280;53303;47.476;8.084;2023-02-16T10:28:50;96376.59;;;19.69;31.82
66486;BME280;53303;47.476;8.084;2023-02-16T10:31:39;96383.94;;;19.72;31.94
66486;BME280;53303;47.476;8.084;2023-02-16T10:47:56;96371.84;;;19.70;32.00
66486;BME280;53303;47.476;8.084;2023-02-16T10:50:25;96374.25;;;19.77;31.86
66486;BME280;53303;47.476;8.084;2023-02-16T10:52:57;96363.81;;;19.72;31.98
66486;BME280;53303;47.476;8.084;2023-02-16T10:55:23;96350.84;;;19.63;31.90
66486;BME280;53303;47.476;8.084;2023-02-16T10:58:00;96371.34;;;19.71;31.94
66486;BME280;53303;47.476;8.084;2023-02-16T11:00:37;96367.06;;;19.70;31.86
66486;BME280;53303;47.476;8.084;2023-02-16T11:03:11;96370.22;;;19.78;31.86
66486;BME280;53303;47.476;8.084;2023-02-16T11:05:40;96371.25;;;19.81;31.80
66486;BME280;53303;47.476;8.084;2023-02-16T11:08:08;96325.59;;;19.55;31.89
66486;BME280;53303;47.476;8.084;2023-02-16T11:13:06;96353.78;;;19.74;32.11
66486;BME280;53303;47.476;8.084;2023-02-16T11:15:35;96325.66;;;19.61;32.00
66486;BME280;53303;47.476;8.084;2023-02-16T11:18:30;96339.56;;;19.67;32.01
66486;BME280;53303;47.476;8.084;2023-02-16T11:20:59;96346.25;;;19.75;31.92
66486;BME280;53303;47.476;8.084;2023-02-16T11:23:26;96353.66;;;19.84;32.04
66486;BME280;53303;47.476;8.084;2023-02-16T11:28:27;96346.88;;;19.85;31.95
66486;BME280;53303;47.476;8.084;2023-02-16T11:30:59;96344.88;;;19.85;31.91
66486;BME280;53303;47.476;8.084;2023-02-16T11:33:30;96310.34;;;19.66;31.78
66486;BME280;53303;47.476;8.084;2023-02-16T11:35:56;96343.63;;;19.86;31.61
66486;BME280;53303;47.476;8.084;2023-02-16T11:38:35;96336.28;;;19.83;32.14
66486;BME280;53303;47.476;8.084;2023-02-16T11:41:05;96312.06;;;19.78;32.17
66486;BME280;53303;47.476;8.084;2023-02-16T11:43:35;96314.56;;;19.76;32.17
66486;BME280;53303;47.476;8.084;2023-02-16T11:46:06;96283.66;;;19.63;32.00
66486;BME280;53303;47.476;8.084;2023-02-16T11:48:36;96317.97;;;19.86;32.04
66486;BME280;53303;47.476;8.084;2023-02-16T11:51:05;96303.94;;;19.74;31.93
66486;BME280;53303;47.476;8.084;2023-02-16T11:53:34;96312.41;;;19.86;31.95
66486;BME280;53303;47.476;8.084;2023-02-16T11:56:25;96314.63;;;19.82;32.15
66486;BME280;53303;47.476;8.084;2023-02-16T11:59:14;96308.38;;;19.87;31.90
66486;BME280;53303;47.476;8.084;2023-02-16T12:02:00;96313.72;;;19.90;32.13
66486;BME280;53303;47.476;8.084;2023-02-16T12:20:32;96305.94;;;19.94;32.12
66486;BME280;53303;47.476;8.084;2023-02-16T12:25:36;96286.34;;;19.98;31.89
66486;BME280;53303;47.476;8.084;2023-02-16T12:28:10;96289.97;;;19.84;32.21
66486;BME280;53303;47.476;8.084;2023-02-16T12:41:37;96280.59;;;20.02;32.01
66486;BME280;53303;47.476;8.084;2023-02-16T12:44:19;96280.59;;;20.02;31.96
66486;BME280;53303;47.476;8.084;2023-02-16T12:46:59;96275.56;;;20.00;31.89
66486;BME280;53303;47.476;8.084;2023-02-16T12:49:32;96270.56;;;20.04;32.09
66486;BME280;53303;47.476;8.084;2023-02-16T12:52:16;96270.50;;;19.99;32.01
66486;BME280;53303;47.476;8.084;2023-02-16T12:54:50;96272.06;;;20.05;32.06
66486;BME280;53303;47.476;8.084;2023-02-16T12:57:23;96270.34;;;20.08;32.06
66486;BME280;53303;47.476;8.084;2023-02-16T12:59:58;96271.38;;;20.10;32.04
66486;BME280;53303;47.476;8.084;2023-02-16T13:02:38;96259.28;;;20.08;32.08
66486;BME280;53303;47.476;8.084;2023-02-16T13:05:22;96264.34;;;20.09;32.05
66486;BME280;53303;47.476;8.084;2023-02-16T13:07:56;96241.06;;;20.01;31.96
66486;BME280;53303;47.476;8.084;2023-02-16T13:10:46;96204.44;;;19.71;32.22
66486;BME280;53303;47.476;8.084;2023-02-16T13:13:17;96235.25;;;19.99;32.10
66486;BME280;53303;47.476;8.084;2023-02-16T13:15:50;96241.91;;;20.07;32.18
66486;BME280;53303;47.476;8.084;2023-02-16T13:18:30;96241.06;;;20.01;32.20
66486;BME280;53303;47.476;8.084;2023-02-16T13:39:28;96234.22;;;20.23;31.99
66486;BME280;53303;47.476;8.084;2023-02-16T13:45:14;96225.13;;;20.16;31.77
66486;BME280;53303;47.476;8.084;2023-02-16T13:47:43;96216.59;;;20.20;31.99
66486;BME280;53303;47.476;8.084;2023-02-16T13:52:50;96210.81;;;20.24;31.89
66486;BME280;53303;47.476;8.084;2023-02-16T13:55:29;96234.63;;;20.36;31.95
66486;BME280;53303;47.476;8.084;2023-02-16T14:00:38;96222.75;;;20.35;31.75
66486;BME280;53303;47.476;8.084;2023-02-16T14:05:43;96219.63;;;20.48;31.95
66486;BME280;53303;47.476;8.084;2023-02-16T14:08:16;96221.13;;;20.49;31.90
66486;BME280;53303;47.476;8.084;2023-02-16T14:15:55;96192.56;;;20.38;31.87
66486;BME280;53303;47.476;8.084;2023-02-16T14:21:03;96211.81;;;20.52;32.03
66486;BME280;53303;47.476;8.084;2023-02-16T14:23:33;96214.59;;;20.52;32.14
66486;BME280;53303;47.476;8.084;2023-02-16T14:26:04;96211.81;;;20.52;32.02
66486;BME280;53303;47.476;8.084;2023-02-16T14:31:00;96184.91;;;20.27;32.03
66486;BME280;53303;47.476;8.084;2023-02-16T14:33:52;96233.22;;;20.46;31.93
66486;BME280;53303;47.476;8.084;2023-02-16T14:36:24;96232.44;;;20.46;32.23
66486;BME280;53303;47.476;8.084;2023-02-16T14:38:53;96219.56;;;20.43;32.12
66486;BME280;53303;47.476;8.084;2023-02-16T14:41:25;96214.78;;;20.43;32.18
66486;BME280;53303;47.476;8.084;2023-02-16T14:44:42;96211.25;;;20.43;32.23
66486;BME280;53303;47.476;8.084;2023-02-16T14:47:22;96220.06;;;20.41;32.08
66486;BME280;53303;47.476;8.084;2023-02-16T15:00:47;96221.28;;;20.40;32.23
66486;BME280;53303;47.476;8.084;2023-02-16T15:03:21;96218.31;;;20.44;32.42
66486;BME280;53303;47.476;8.084;2023-02-16T15:05:58;96212.50;;;20.42;32.39
66486;BME280;53303;47.476;8.084;2023-02-16T15:08:28;96199.59;;;20.39;32.50
66486;BME280;53303;47.476;8.084;2023-02-16T15:13:35;96214.78;;;20.43;32.37
66486;BME280;53303;47.476;8.084;2023-02-16T15:16:03;96221.38;;;20.51;32.50
66486;BME280;53303;47.476;8.084;2023-02-16T15:18:36;96221.91;;;20.50;32.46
66486;BME280;53303;47.476;8.084;2023-02-16T15:21:02;96225.94;;;20.54;32.49
66486;BME280;53303;47.476;8.084;2023-02-16T15:23:31;96225.94;;;20.54;32.61
66486;BME280;53303;47.476;8.084;2023-02-16T15:26:05;96225.69;;;20.52;32.44
66486;BME280;53303;47.476;8.084;2023-02-16T15:28:38;96212.50;;;20.42;32.58
66486;BME280;53303;47.476;8.084;2023-02-16T15:31:14;96231.69;;;20.45;32.68
66486;BME280;53303;47.476;8.084;2023-02-16T15:33:57;96235.16;;;20.40;32.70
66486;BME280;53303;47.476;8.084;2023-02-16T15:36:36;96230.09;;;20.39;32.59
66486;BME280;53303;47.476;8.084;2023-02-16T15:39:11;96246.03;;;20.44;32.61
66486;BME280;53303;47.476;8.084;2023-02-16T15:41:48;96238.19;;;20.42;32.66
66486;BME280;53303;47.476;8.084;2023-02-16T15:44:33;96206.72;;;20.19;32.84
66486;BME280;53303;47.476;8.084;2023-02-16T15:47:29;96232.34;;;20.34;32.80
66486;BME280;53303;47.476;8.084;2023-02-16T15:49:56;96231.59;;;20.34;32.99
66486;BME280;53303;47.476;8.084;2023-02-16T15:52:29;96205.44;;;20.14;32.66
66486;BME280;53303;47.476;8.084;2023-02-16T15:54:56;96220.16;;;20.26;32.94
66486;BME280;53303;47.476;8.084;2023-02-16T15:57:33;96222.97;;;20.32;32.64
66486;BME280;53303;47.476;8.084;2023-02-16T16:00:15;96235.38;;;20.37;32.75
66486;BME280;53303;47.476;8.084;2023-02-16T16:02:48;96225.00;;;20.31;32.72
66486;BME280;53303;47.476;8.084;2023-02-16T16:05:28;96222.72;;;20.30;32.90
66486;BME280;53303;47.476;8.084;2023-02-16T16:07:57;96217.66;;;20.28;32.75
66486;BME280;53303;47.476;8.084;2023-02-16T16:10:31;96226.25;;;20.30;32.72